createdAt,value
2017-01-18T00:00:23.129Z,20.4
2017-01-18T00:01:03.626Z,20.46
2017-01-18T00:01:44.134Z,20.4
2017-01-18T00:02:24.635Z,20.35
2017-01-18T00:03:05.109Z,20.4
2017-01-18T00:03:45.602Z,20.46
2017-01-18T00:04:26.098Z,20.32
2017-01-18T00:05:06.589Z,20.22
2017-01-18T00:05:47.102Z,20.32
2017-01-18T00:06:27.575Z,20.38
2017-01-18T00:07:08.064Z,20.35
2017-01-18T00:07:48.557Z,20.37
2017-01-18T00:08:29.034Z,20.3
2017-01-18T00:09:09.516Z,20.38
2017-01-18T00:09:50.025Z,20.35
2017-01-18T00:10:30.519Z,20.38
2017-01-18T00:11:11.027Z,20.34
2017-01-18T00:11:51.524Z,20.4
2017-01-18T00:12:32.021Z,20.3
2017-01-18T00:13:12.513Z,20.35
2017-01-18T00:13:53.020Z,20.25
2017-01-18T00:14:33.510Z,20.29
2017-01-18T00:15:13.993Z,20.3
2017-01-18T00:15:54.484Z,20.32
2017-01-18T00:16:34.993Z,20.25
2017-01-18T00:17:15.475Z,20.29
2017-01-18T00:17:55.963Z,20.26
2017-01-18T00:18:36.461Z,20.32
2017-01-18T00:19:16.948Z,20.34
2017-01-18T00:19:57.436Z,20.32
2017-01-18T00:20:37.923Z,20.32
2017-01-18T00:21:18.417Z,20.26
2017-01-18T00:21:58.907Z,20.22
2017-01-18T00:22:39.408Z,20.26
2017-01-18T00:23:19.906Z,20.26
2017-01-18T00:24:00.392Z,20.23
2017-01-18T00:24:40.887Z,20.3
2017-01-18T00:25:21.383Z,20.3
2017-01-18T00:26:01.879Z,20.35
2017-01-18T00:26:42.364Z,20.29
2017-01-18T00:27:22.859Z,20.35
2017-01-18T00:28:03.346Z,20.41
2017-01-18T00:28:43.850Z,20.38
2017-01-18T00:29:24.351Z,20.4
2017-01-18T00:30:04.843Z,20.29
2017-01-18T00:30:45.347Z,20.23
2017-01-18T00:31:25.843Z,20.41
2017-01-18T00:32:06.344Z,20.38
2017-01-18T00:32:46.846Z,20.23
2017-01-18T00:33:27.336Z,20.37
2017-01-18T00:34:07.822Z,20.27
2017-01-18T00:34:48.314Z,20.27
2017-01-18T00:35:28.803Z,20.25
2017-01-18T00:36:09.299Z,20.27
2017-01-18T00:36:49.795Z,20.23
2017-01-18T00:37:30.279Z,20.25
2017-01-18T00:38:10.832Z,20.26
2017-01-18T00:38:51.328Z,20.27
2017-01-18T00:39:31.803Z,20.25
2017-01-18T00:40:12.285Z,20.22
2017-01-18T00:40:52.793Z,20.25
2017-01-18T00:41:33.292Z,20.23
2017-01-18T00:42:13.790Z,20.15
2017-01-18T00:42:54.281Z,20.16
2017-01-18T00:43:34.778Z,20.25
2017-01-18T00:44:15.262Z,20.15
2017-01-18T00:44:55.761Z,20.18
2017-01-18T00:45:36.257Z,20.16
2017-01-18T00:46:16.755Z,20.22
2017-01-18T00:46:57.239Z,20.34
2017-01-18T00:47:37.718Z,20.23
2017-01-18T00:48:18.208Z,20.32
2017-01-18T00:48:58.689Z,20.22
2017-01-18T00:49:39.170Z,20.22
2017-01-18T00:50:19.676Z,20.18
2017-01-18T00:51:00.166Z,20.11
2017-01-18T00:51:40.654Z,20.16
2017-01-18T00:52:21.151Z,20.1
2017-01-18T00:53:01.644Z,20.16
2017-01-18T00:53:42.134Z,20.25
2017-01-18T00:54:22.649Z,20.15
2017-01-18T00:55:03.140Z,20.22
2017-01-18T00:55:43.625Z,20.18
2017-01-18T00:56:24.118Z,20.15
2017-01-18T00:57:04.615Z,20.16
2017-01-18T00:57:45.097Z,20.15
2017-01-18T00:58:25.580Z,20.11
2017-01-18T00:59:06.090Z,20.2
2017-01-18T00:59:46.568Z,20.3
2017-01-18T01:00:27.055Z,20.23
2017-01-18T01:01:07.541Z,20.29
2017-01-18T01:01:48.036Z,20.19
2017-01-18T01:02:28.540Z,20.25
2017-01-18T01:03:09.021Z,20.25
2017-01-18T01:03:49.539Z,20.27
2017-01-18T01:04:30.023Z,20.11
2017-01-18T01:05:10.518Z,20.12
2017-01-18T01:05:51.011Z,20.27
2017-01-18T01:06:31.502Z,20.26
2017-01-18T01:07:12.004Z,20.26
2017-01-18T01:07:52.532Z,20.22
2017-01-18T01:08:33.013Z,20.22
2017-01-18T01:09:13.493Z,20.19
2017-01-18T01:09:53.983Z,20.2
2017-01-18T01:10:34.478Z,20.19
2017-01-18T01:11:14.976Z,20.2
2017-01-18T01:11:55.491Z,20.3
2017-01-18T01:12:36.006Z,20.11
2017-01-18T01:13:16.497Z,20.08
2017-01-18T01:13:56.998Z,20.15
2017-01-18T01:14:37.502Z,20.11
2017-01-18T01:15:18.003Z,20.12
2017-01-18T01:15:58.504Z,20.07
2017-01-18T01:16:38.989Z,20.04
2017-01-18T01:17:19.499Z,19.93
2017-01-18T01:17:59.994Z,20.08
2017-01-18T01:18:40.504Z,20.15
2017-01-18T01:19:21.000Z,20.16
2017-01-18T01:20:01.499Z,20.25
2017-01-18T01:20:41.992Z,20.25
2017-01-18T01:21:22.490Z,20.18
2017-01-18T01:22:02.995Z,20.19
2017-01-18T01:22:43.489Z,20.22
2017-01-18T01:23:23.989Z,20.22
2017-01-18T01:24:04.483Z,20.23
2017-01-18T01:24:44.992Z,20.26
2017-01-18T01:25:25.484Z,20.18
2017-01-18T01:26:05.981Z,20.15
2017-01-18T01:26:46.491Z,20.22
2017-01-18T01:27:26.976Z,20.27
2017-01-18T01:28:07.489Z,20.26
2017-01-18T01:28:47.977Z,20.08
2017-01-18T01:29:28.475Z,20.26
2017-01-18T01:30:08.962Z,20.12
2017-01-18T01:30:49.458Z,20.16
2017-01-18T01:31:29.961Z,20.12
2017-01-18T01:32:10.440Z,20.1
2017-01-18T01:32:50.935Z,20.05
2017-01-18T01:33:31.435Z,20.1
2017-01-18T01:34:11.934Z,20.18
2017-01-18T01:34:52.432Z,20.1
2017-01-18T01:35:32.917Z,20.1
2017-01-18T01:36:13.428Z,20.16
2017-01-18T01:36:53.925Z,20.15
2017-01-18T01:37:34.420Z,20.11
2017-01-18T01:38:14.931Z,20.12
2017-01-18T01:38:55.497Z,20.1
2017-01-18T01:39:35.981Z,20
2017-01-18T01:40:16.468Z,20.11
2017-01-18T01:40:56.977Z,20.08
2017-01-18T01:41:37.469Z,20.04
2017-01-18T01:42:17.952Z,20.11
2017-01-18T01:42:58.447Z,20.12
2017-01-18T01:43:38.947Z,20.12
2017-01-18T01:44:19.431Z,19.98
2017-01-18T01:44:59.925Z,19.92
2017-01-18T01:45:40.424Z,20.02
2017-01-18T01:46:20.907Z,19.93
2017-01-18T01:47:01.394Z,20.04
2017-01-18T01:47:41.883Z,20.08
2017-01-18T01:48:22.398Z,20.11
2017-01-18T01:49:02.866Z,20.16
2017-01-18T01:49:43.363Z,20.02
2017-01-18T01:50:23.869Z,20.05
2017-01-18T01:51:04.362Z,20
2017-01-18T01:51:44.865Z,20
2017-01-18T01:52:25.351Z,20.04
2017-01-18T01:53:05.841Z,20.02
2017-01-18T01:53:46.327Z,20.05
2017-01-18T01:54:26.837Z,20.04
2017-01-18T01:55:07.334Z,19.9
2017-01-18T01:55:47.836Z,19.98
2017-01-18T01:57:40.429Z,19.95
2017-01-18T01:58:20.928Z,20.05
2017-01-18T01:59:01.414Z,19.98
2017-01-18T01:59:41.916Z,19.95
2017-01-18T02:00:22.408Z,19.92
2017-01-18T02:01:03.583Z,19.95
2017-01-18T02:01:43.758Z,19.97
2017-01-18T02:02:24.251Z,20
2017-01-18T02:03:04.750Z,19.98
2017-01-18T02:03:45.256Z,19.97
2017-01-18T02:04:25.731Z,19.92
2017-01-18T02:05:06.223Z,19.93
2017-01-18T02:05:46.705Z,20.07
2017-01-18T02:06:27.200Z,20.08
2017-01-18T02:07:07.691Z,20.12
2017-01-18T02:07:48.184Z,20.11
2017-01-18T02:08:28.673Z,20.16
2017-01-18T02:09:09.154Z,20.04
2017-01-18T02:09:49.650Z,19.97
2017-01-18T02:10:30.145Z,20
2017-01-18T02:11:10.633Z,20.07
2017-01-18T02:11:51.117Z,20.01
2017-01-18T02:12:31.597Z,20
2017-01-18T02:13:12.075Z,20
2017-01-18T02:13:52.562Z,19.97
2017-01-18T02:14:33.060Z,20.02
2017-01-18T02:15:13.560Z,20.04
2017-01-18T02:15:54.037Z,19.89
2017-01-18T02:16:34.527Z,19.95
2017-01-18T02:17:15.009Z,19.95
2017-01-18T02:17:55.495Z,19.97
2017-01-18T02:18:35.982Z,20.01
2017-01-18T02:19:16.479Z,20
2017-01-18T02:19:56.965Z,20.04
2017-01-18T02:20:37.470Z,20
2017-01-18T02:21:17.970Z,19.97
2017-01-18T02:21:58.454Z,20.01
2017-01-18T02:22:38.948Z,19.97
2017-01-18T02:23:19.446Z,19.98
2017-01-18T02:23:59.935Z,19.89
2017-01-18T02:24:40.447Z,19.95
2017-01-18T02:25:20.939Z,19.93
2017-01-18T02:26:01.444Z,19.98
2017-01-18T02:26:41.926Z,19.9
2017-01-18T02:27:22.409Z,19.89
2017-01-18T02:28:02.895Z,19.95
2017-01-18T02:28:43.380Z,19.98
2017-01-18T02:29:23.870Z,19.9
2017-01-18T02:30:04.365Z,20
2017-01-18T02:30:44.864Z,20
2017-01-18T02:31:25.367Z,20.02
2017-01-18T02:32:05.860Z,20
2017-01-18T02:32:46.365Z,20.05
2017-01-18T02:33:26.867Z,20
2017-01-18T02:34:07.357Z,19.92
2017-01-18T02:34:47.855Z,19.95
2017-01-18T02:35:28.338Z,19.87
2017-01-18T02:36:08.821Z,19.93
2017-01-18T02:36:49.334Z,20
2017-01-18T02:37:29.810Z,19.93
2017-01-18T02:38:10.295Z,20.02
2017-01-18T02:38:50.783Z,19.98
2017-01-18T02:39:31.264Z,19.97
2017-01-18T02:40:11.749Z,19.89
2017-01-18T02:40:52.256Z,19.95
2017-01-18T02:41:32.743Z,19.98
2017-01-18T02:42:13.250Z,19.98
2017-01-18T02:42:53.746Z,20.02
2017-01-18T02:43:34.255Z,20
2017-01-18T02:44:14.723Z,19.93
2017-01-18T02:44:55.263Z,19.98
2017-01-18T02:45:35.761Z,19.97
2017-01-18T02:46:16.248Z,19.87
2017-01-18T02:46:56.734Z,19.93
2017-01-18T02:47:37.226Z,20.01
2017-01-18T02:48:17.708Z,20.05
2017-01-18T02:48:58.202Z,20
2017-01-18T02:49:38.695Z,19.89
2017-01-18T02:50:19.189Z,19.98
2017-01-18T02:50:59.670Z,20
2017-01-18T02:51:40.159Z,19.98
2017-01-18T02:52:20.664Z,20
2017-01-18T02:53:01.146Z,19.98
2017-01-18T02:53:41.629Z,19.92
2017-01-18T02:54:22.113Z,19.92
2017-01-18T02:55:02.606Z,19.86
2017-01-18T02:55:43.112Z,19.97
2017-01-18T02:56:23.593Z,19.9
2017-01-18T02:57:04.077Z,19.87
2017-01-18T02:57:44.558Z,19.98
2017-01-18T02:58:25.043Z,19.87
2017-01-18T02:59:05.523Z,19.7
2017-01-18T02:59:46.010Z,19.71
2017-01-18T03:00:26.495Z,19.78
2017-01-18T03:01:06.984Z,19.87
2017-01-18T03:01:47.468Z,19.92
2017-01-18T03:02:27.977Z,19.93
2017-01-18T03:03:08.477Z,19.87
2017-01-18T03:03:48.962Z,19.9
2017-01-18T03:04:29.451Z,19.93
2017-01-18T03:05:09.933Z,19.86
2017-01-18T03:05:50.425Z,19.9
2017-01-18T03:06:30.925Z,19.85
2017-01-18T03:07:11.412Z,19.98
2017-01-18T03:07:51.916Z,19.95
2017-01-18T03:08:32.410Z,19.89
2017-01-18T03:09:12.889Z,19.85
2017-01-18T03:09:53.405Z,19.89
2017-01-18T03:10:33.897Z,19.86
2017-01-18T03:11:14.392Z,19.82
2017-01-18T03:11:54.890Z,19.7
2017-01-18T03:12:35.370Z,19.85
2017-01-18T03:13:15.866Z,19.85
2017-01-18T03:13:56.363Z,19.89
2017-01-18T03:14:36.865Z,20
2017-01-18T03:15:17.368Z,19.85
2017-01-18T03:15:57.865Z,19.79
2017-01-18T03:16:38.363Z,19.72
2017-01-18T03:17:18.856Z,19.74
2017-01-18T03:17:59.365Z,19.74
2017-01-18T03:18:39.853Z,19.68
2017-01-18T03:19:20.352Z,19.68
2017-01-18T03:20:00.859Z,19.7
2017-01-18T03:20:41.361Z,19.82
2017-01-18T03:21:21.843Z,19.87
2017-01-18T03:22:02.332Z,19.83
2017-01-18T03:22:42.826Z,19.85
2017-01-18T03:23:23.332Z,19.79
2017-01-18T03:24:03.825Z,19.82
2017-01-18T03:24:44.377Z,19.9
2017-01-18T03:25:24.875Z,19.83
2017-01-18T03:26:05.366Z,19.79
2017-01-18T03:26:45.854Z,19.86
2017-01-18T03:27:26.354Z,19.85
2017-01-18T03:28:06.850Z,19.89
2017-01-18T03:28:47.357Z,19.87
2017-01-18T03:29:27.848Z,19.98
2017-01-18T03:30:08.356Z,19.9
2017-01-18T03:30:48.849Z,19.79
2017-01-18T03:31:29.354Z,19.68
2017-01-18T03:32:09.843Z,19.7
2017-01-18T03:32:50.349Z,19.71
2017-01-18T03:33:30.835Z,19.78
2017-01-18T03:34:11.337Z,19.67
2017-01-18T03:34:51.838Z,19.75
2017-01-18T03:35:32.415Z,19.71
2017-01-18T03:36:12.898Z,19.71
2017-01-18T03:36:53.378Z,19.71
2017-01-18T03:37:33.866Z,19.68
2017-01-18T03:38:14.352Z,19.78
2017-01-18T03:38:54.845Z,19.74
2017-01-18T03:39:35.342Z,19.86
2017-01-18T03:40:15.833Z,19.89
2017-01-18T03:40:56.339Z,19.9
2017-01-18T03:41:36.832Z,19.93
2017-01-18T03:42:17.342Z,19.86
2017-01-18T03:42:57.824Z,19.9
2017-01-18T03:43:38.310Z,19.78
2017-01-18T03:44:18.793Z,19.83
2017-01-18T03:44:59.287Z,19.75
2017-01-18T03:45:39.780Z,19.75
2017-01-18T03:46:20.281Z,19.75
2017-01-18T03:47:00.779Z,19.7
2017-01-18T03:47:41.271Z,19.74
2017-01-18T03:48:21.759Z,19.72
2017-01-18T03:49:02.239Z,19.72
2017-01-18T03:49:42.732Z,19.63
2017-01-18T03:50:23.226Z,19.7
2017-01-18T03:51:03.718Z,19.72
2017-01-18T03:51:44.201Z,19.75
2017-01-18T03:52:24.687Z,19.83
2017-01-18T03:53:05.179Z,19.72
2017-01-18T03:53:45.670Z,19.83
2017-01-18T03:54:26.169Z,19.78
2017-01-18T03:55:06.671Z,19.87
2017-01-18T03:55:47.162Z,19.72
2017-01-18T03:56:27.647Z,19.7
2017-01-18T03:57:08.131Z,19.8
2017-01-18T03:57:48.623Z,19.89
2017-01-18T03:58:29.117Z,19.82
2017-01-18T03:59:09.608Z,19.8
2017-01-18T03:59:50.114Z,19.92
2017-01-18T04:00:30.607Z,19.86
2017-01-18T04:01:11.093Z,19.87
2017-01-18T04:01:51.587Z,19.87
2017-01-18T04:02:32.085Z,19.92
2017-01-18T04:03:12.568Z,19.86
2017-01-18T04:03:53.064Z,19.87
2017-01-18T04:04:33.559Z,19.8
2017-01-18T04:05:14.051Z,19.7
2017-01-18T04:05:54.535Z,19.79
2017-01-18T04:06:35.020Z,19.83
2017-01-18T04:07:15.507Z,19.71
2017-01-18T04:07:56.005Z,19.89
2017-01-18T04:08:36.488Z,19.92
2017-01-18T04:09:16.998Z,19.89
2017-01-18T04:09:57.495Z,19.78
2017-01-18T04:10:38.005Z,19.61
2017-01-18T04:11:18.492Z,19.67
2017-01-18T04:11:58.978Z,19.67
2017-01-18T04:12:39.447Z,19.74
2017-01-18T04:13:19.970Z,19.75
2017-01-18T04:14:00.447Z,19.67
2017-01-18T04:14:40.944Z,19.8
2017-01-18T04:15:21.453Z,19.72
2017-01-18T04:16:01.932Z,19.72
2017-01-18T04:16:42.446Z,19.7
2017-01-18T04:17:22.935Z,19.78
2017-01-18T04:18:03.447Z,19.7
2017-01-18T04:18:43.931Z,19.82
2017-01-18T04:19:24.444Z,19.7
2017-01-18T04:20:04.932Z,19.72
2017-01-18T04:20:45.442Z,19.78
2017-01-18T04:21:26.000Z,19.79
2017-01-18T04:22:06.493Z,19.7
2017-01-18T04:22:46.987Z,19.78
2017-01-18T04:23:27.475Z,19.74
2017-01-18T04:24:07.964Z,19.71
2017-01-18T04:24:48.451Z,19.75
2017-01-18T04:25:28.938Z,19.74
2017-01-18T04:26:09.432Z,19.9
2017-01-18T04:26:49.925Z,19.87
2017-01-18T04:27:30.412Z,19.72
2017-01-18T04:28:10.907Z,19.74
2017-01-18T04:28:51.400Z,19.71
2017-01-18T04:29:31.884Z,19.7
2017-01-18T04:30:12.374Z,19.74
2017-01-18T04:30:52.874Z,19.79
2017-01-18T04:31:33.374Z,19.67
2017-01-18T04:32:13.879Z,19.71
2017-01-18T04:32:54.363Z,19.83
2017-01-18T04:33:34.850Z,19.93
2017-01-18T04:34:15.337Z,19.83
2017-01-18T04:34:55.829Z,19.8
2017-01-18T04:35:36.323Z,19.71
2017-01-18T04:36:16.815Z,19.75
2017-01-18T04:36:57.297Z,19.75
2017-01-18T04:37:37.772Z,19.74
2017-01-18T04:38:18.256Z,19.71
2017-01-18T04:38:58.745Z,19.7
2017-01-18T04:39:39.234Z,19.65
2017-01-18T04:40:19.741Z,19.65
2017-01-18T04:41:00.220Z,19.65
2017-01-18T04:41:40.716Z,19.64
2017-01-18T04:42:21.212Z,19.71
2017-01-18T04:43:01.705Z,19.71
2017-01-18T04:43:42.190Z,19.72
2017-01-18T04:44:22.686Z,19.78
2017-01-18T04:45:03.187Z,19.75
2017-01-18T04:45:43.668Z,19.78
2017-01-18T04:46:24.162Z,19.8
2017-01-18T04:47:04.657Z,19.85
2017-01-18T04:47:45.143Z,19.67
2017-01-18T04:48:25.633Z,19.64
2017-01-18T04:49:06.128Z,19.82
2017-01-18T04:49:46.632Z,19.9
2017-01-18T04:50:27.127Z,19.8
2017-01-18T04:51:07.626Z,19.75
2017-01-18T04:51:48.112Z,19.7
2017-01-18T04:52:28.609Z,19.67
2017-01-18T04:53:09.105Z,19.68
2017-01-18T04:53:49.592Z,19.68
2017-01-18T04:54:30.078Z,19.85
2017-01-18T04:55:10.571Z,19.78
2017-01-18T04:55:51.063Z,19.65
2017-01-18T04:56:31.547Z,19.74
2017-01-18T04:57:12.038Z,19.75
2017-01-18T04:57:52.523Z,19.68
2017-01-18T04:58:33.011Z,19.82
2017-01-18T04:59:13.516Z,19.83
2017-01-18T04:59:54.003Z,19.72
2017-01-18T05:00:34.495Z,19.79
2017-01-18T05:01:14.991Z,19.68
2017-01-18T05:01:55.485Z,19.72
2017-01-18T05:02:35.992Z,19.72
2017-01-18T05:03:16.477Z,19.72
2017-01-18T05:03:56.966Z,19.63
2017-01-18T05:04:37.460Z,19.78
2017-01-18T05:05:17.961Z,19.74
2017-01-18T05:05:58.447Z,19.82
2017-01-18T05:06:38.941Z,19.83
2017-01-18T05:07:19.431Z,19.8
2017-01-18T05:07:59.933Z,19.74
2017-01-18T05:08:40.429Z,19.74
2017-01-18T05:09:20.921Z,19.65
2017-01-18T05:10:01.406Z,19.71
2017-01-18T05:10:41.892Z,19.68
2017-01-18T05:11:22.376Z,19.63
2017-01-18T05:12:02.877Z,19.75
2017-01-18T05:12:43.369Z,19.67
2017-01-18T05:13:23.869Z,19.82
2017-01-18T05:14:04.377Z,19.65
2017-01-18T05:14:44.872Z,19.74
2017-01-18T05:15:25.369Z,19.7
2017-01-18T05:16:05.860Z,19.72
2017-01-18T05:16:46.372Z,19.75
2017-01-18T05:17:26.875Z,19.7
2017-01-18T05:18:07.358Z,19.75
2017-01-18T05:18:47.850Z,19.71
2017-01-18T05:19:28.354Z,19.71
2017-01-18T05:20:08.838Z,19.74
2017-01-18T05:20:49.320Z,19.75
2017-01-18T05:21:29.808Z,19.7
2017-01-18T05:22:10.295Z,19.63
2017-01-18T05:22:50.778Z,19.72
2017-01-18T05:23:31.267Z,19.75
2017-01-18T05:24:11.765Z,19.71
2017-01-18T05:24:52.249Z,19.68
2017-01-18T05:25:32.737Z,19.65
2017-01-18T05:26:13.229Z,19.56
2017-01-18T05:26:53.734Z,19.7
2017-01-18T05:27:34.216Z,19.75
2017-01-18T05:28:14.711Z,19.75
2017-01-18T05:28:55.203Z,19.72
2017-01-18T05:29:35.697Z,19.72
2017-01-18T05:30:16.191Z,19.67
2017-01-18T05:30:56.699Z,19.68
2017-01-18T05:31:37.190Z,19.7
2017-01-18T05:32:17.704Z,19.65
2017-01-18T05:32:58.211Z,19.74
2017-01-18T05:33:38.707Z,19.7
2017-01-18T05:34:19.202Z,19.68
2017-01-18T05:34:59.694Z,19.61
2017-01-18T05:35:40.181Z,19.63
2017-01-18T05:36:20.677Z,19.56
2017-01-18T05:37:01.168Z,19.68
2017-01-18T05:37:41.652Z,19.67
2017-01-18T05:38:22.147Z,19.61
2017-01-18T05:39:02.650Z,19.72
2017-01-18T05:39:43.137Z,19.65
2017-01-18T05:40:23.642Z,19.65
2017-01-18T05:41:04.148Z,19.64
2017-01-18T05:41:44.638Z,19.67
2017-01-18T05:42:25.128Z,19.7
2017-01-18T05:43:05.620Z,19.63
2017-01-18T05:43:46.116Z,19.79
2017-01-18T05:44:26.618Z,19.67
2017-01-18T05:46:19.195Z,19.85
2017-01-18T05:46:59.702Z,19.78
2017-01-18T05:47:40.187Z,19.71
2017-01-18T05:48:20.683Z,19.68
2017-01-18T05:49:01.176Z,19.64
2017-01-18T05:49:41.677Z,19.7
2017-01-18T05:50:22.177Z,19.63
2017-01-18T05:51:02.663Z,19.74
2017-01-18T05:51:43.151Z,19.6
2017-01-18T05:52:23.643Z,19.61
2017-01-18T05:53:04.177Z,19.72
2017-01-18T05:53:44.662Z,19.63
2017-01-18T05:54:25.152Z,19.64
2017-01-18T05:55:05.631Z,19.68
2017-01-18T05:55:46.123Z,19.68
2017-01-18T05:56:26.624Z,19.67
2017-01-18T05:57:07.124Z,19.64
2017-01-18T05:57:47.614Z,19.72
2017-01-18T05:58:28.120Z,19.74
2017-01-18T05:59:08.616Z,19.72
2017-01-18T05:59:49.120Z,19.7
2017-01-18T06:00:29.617Z,19.68
2017-01-18T06:01:10.103Z,19.68
2017-01-18T06:01:50.596Z,19.67
2017-01-18T06:02:31.180Z,19.71
2017-01-18T06:03:11.668Z,19.61
2017-01-18T06:03:52.166Z,19.75
2017-01-18T06:04:32.663Z,19.65
2017-01-18T06:05:13.167Z,19.65
2017-01-18T06:05:53.659Z,19.67
2017-01-18T06:06:34.167Z,19.71
2017-01-18T06:07:14.660Z,19.74
2017-01-18T06:07:55.170Z,19.83
2017-01-18T06:08:35.667Z,19.68
2017-01-18T06:09:16.162Z,19.83
2017-01-18T06:09:56.658Z,19.64
2017-01-18T06:10:37.137Z,19.71
2017-01-18T06:11:17.619Z,19.85
2017-01-18T06:11:58.109Z,19.75
2017-01-18T06:12:38.603Z,19.72
2017-01-18T06:13:19.100Z,19.74
2017-01-18T06:13:59.581Z,19.65
2017-01-18T06:14:40.057Z,19.71
2017-01-18T06:15:20.556Z,19.72
2017-01-18T06:16:01.042Z,19.74
2017-01-18T06:16:41.555Z,19.64
2017-01-18T06:17:22.054Z,19.71
2017-01-18T06:18:02.535Z,19.68
2017-01-18T06:18:43.027Z,19.72
2017-01-18T06:19:23.524Z,19.72
2017-01-18T06:20:04.018Z,19.65
2017-01-18T06:20:44.500Z,19.7
2017-01-18T06:21:24.982Z,19.71
2017-01-18T06:22:05.488Z,19.7
2017-01-18T06:22:45.952Z,19.8
2017-01-18T06:23:26.446Z,19.79
2017-01-18T06:24:06.933Z,19.74
2017-01-18T06:24:47.438Z,19.72
2017-01-18T06:25:27.929Z,19.71
2017-01-18T06:26:08.428Z,19.68
2017-01-18T06:26:48.917Z,19.67
2017-01-18T06:27:29.405Z,19.78
2017-01-18T06:28:09.891Z,19.74
2017-01-18T06:28:50.389Z,19.75
2017-01-18T06:29:30.886Z,19.82
2017-01-18T06:30:11.360Z,19.65
2017-01-18T06:30:51.844Z,19.65
2017-01-18T06:31:32.328Z,19.78
2017-01-18T06:32:12.838Z,19.74
2017-01-18T06:32:53.321Z,19.75
2017-01-18T06:33:33.804Z,19.71
2017-01-18T06:34:14.288Z,19.82
2017-01-18T06:34:54.770Z,19.89
2017-01-18T06:35:35.258Z,19.83
2017-01-18T06:36:15.741Z,19.74
2017-01-18T06:36:56.247Z,19.82
2017-01-18T06:38:48.855Z,19.89
2017-01-18T06:39:29.342Z,19.82
2017-01-18T06:40:09.817Z,19.8
2017-01-18T06:40:50.305Z,19.8
2017-01-18T06:41:30.795Z,19.74
2017-01-18T06:42:11.286Z,19.78
2017-01-18T06:42:51.808Z,19.63
2017-01-18T06:43:32.296Z,19.82
2017-01-18T06:44:12.785Z,19.78
2017-01-18T06:44:53.274Z,19.64
2017-01-18T06:45:33.756Z,19.65
2017-01-18T06:46:14.257Z,19.65
2017-01-18T06:46:54.748Z,19.61
2017-01-18T06:47:35.234Z,19.64
2017-01-18T06:48:15.706Z,19.67
2017-01-18T06:48:56.208Z,19.63
2017-01-18T06:49:36.704Z,19.64
2017-01-18T06:50:17.193Z,19.72
2017-01-18T06:50:57.707Z,19.65
2017-01-18T06:51:38.202Z,19.74
2017-01-18T06:52:18.689Z,19.7
2017-01-18T06:52:59.175Z,19.72
2017-01-18T06:53:39.677Z,19.64
2017-01-18T06:54:20.160Z,19.72
2017-01-18T06:55:00.647Z,19.74
2017-01-18T06:55:41.138Z,19.71
2017-01-18T06:56:21.639Z,19.63
2017-01-18T06:57:02.121Z,19.64
2017-01-18T06:57:42.601Z,19.71
2017-01-18T06:58:23.089Z,19.79
2017-01-18T06:59:03.597Z,19.74
2017-01-18T06:59:44.088Z,19.8
2017-01-18T07:00:24.588Z,19.79
2017-01-18T07:01:05.079Z,19.7
2017-01-18T07:01:46.521Z,19.64
2017-01-18T07:02:27.032Z,19.68
2017-01-18T07:03:07.520Z,19.72
2017-01-18T07:03:48.014Z,19.72
2017-01-18T07:04:28.509Z,19.78
2017-01-18T07:05:08.985Z,19.7
2017-01-18T07:05:49.483Z,19.8
2017-01-18T07:06:29.985Z,19.75
2017-01-18T07:07:10.474Z,19.67
2017-01-18T07:07:50.962Z,19.72
2017-01-18T07:08:31.456Z,19.67
2017-01-18T07:09:11.957Z,19.74
2017-01-18T07:09:52.427Z,19.83
2017-01-18T07:10:32.923Z,19.89
2017-01-18T07:11:13.406Z,19.78
2017-01-18T07:11:53.892Z,19.83
2017-01-18T07:12:34.375Z,19.83
2017-01-18T07:13:14.871Z,19.74
2017-01-18T07:13:55.399Z,19.83
2017-01-18T07:14:35.884Z,19.82
2017-01-18T07:15:17.246Z,19.79
2017-01-18T07:15:57.741Z,19.87
2017-01-18T07:16:38.230Z,19.9
2017-01-18T07:17:18.720Z,19.83
2017-01-18T07:17:59.221Z,19.95
2017-01-18T07:18:39.703Z,19.9
2017-01-18T07:19:20.208Z,19.9
2017-01-18T07:20:00.702Z,19.86
2017-01-18T07:20:41.206Z,19.72
2017-01-18T07:21:21.711Z,19.75
2017-01-18T07:22:02.199Z,19.8
2017-01-18T07:22:42.705Z,19.85
2017-01-18T07:23:23.212Z,19.89
2017-01-18T07:24:03.735Z,19.83
2017-01-18T07:24:44.288Z,19.87
2017-01-18T07:25:24.851Z,19.93
2017-01-18T07:26:05.358Z,19.9
2017-01-18T07:26:45.858Z,19.89
2017-01-18T07:27:26.346Z,19.93
2017-01-18T07:28:06.831Z,19.95
2017-01-18T07:28:47.516Z,19.8
2017-01-18T07:29:28.014Z,19.89
2017-01-18T07:30:09.016Z,19.87
2017-01-18T07:30:49.525Z,19.89
2017-01-18T07:31:30.006Z,19.83
2017-01-18T07:32:10.493Z,19.87
2017-01-18T07:32:50.989Z,19.92
2017-01-18T07:33:31.457Z,19.92
2017-01-18T07:34:11.965Z,19.85
2017-01-18T07:34:52.461Z,20.02
2017-01-18T07:35:32.952Z,19.89
2017-01-18T07:36:13.470Z,19.86
2017-01-18T07:36:53.965Z,19.78
2017-01-18T07:37:34.466Z,19.89
2017-01-18T07:38:14.959Z,19.86
2017-01-18T07:38:55.455Z,19.75
2017-01-18T07:39:35.959Z,19.92
2017-01-18T07:40:16.466Z,19.83
2017-01-18T07:40:56.947Z,19.98
2017-01-18T07:41:37.436Z,19.92
2017-01-18T07:42:17.922Z,19.83
2017-01-18T07:42:58.434Z,19.87
2017-01-18T07:43:38.920Z,20.01
2017-01-18T07:44:19.429Z,20.01
2017-01-18T07:44:59.905Z,19.87
2017-01-18T07:45:40.406Z,19.9
2017-01-18T07:46:20.908Z,19.93
2017-01-18T07:47:01.399Z,20
2017-01-18T07:47:41.903Z,19.95
2017-01-18T07:48:22.389Z,19.89
2017-01-18T07:49:02.896Z,19.89
2017-01-18T07:49:43.392Z,19.97
2017-01-18T07:50:23.876Z,20.07
2017-01-18T07:51:04.365Z,20
2017-01-18T07:51:44.875Z,20.19
2017-01-18T07:52:25.374Z,20.02
2017-01-18T07:53:05.865Z,20
2017-01-18T07:53:46.354Z,20
2017-01-18T07:54:26.846Z,20
2017-01-18T07:55:07.345Z,19.9
2017-01-18T07:55:47.841Z,19.97
2017-01-18T07:56:28.336Z,20.02
2017-01-18T07:57:08.891Z,20.01
2017-01-18T07:57:49.381Z,19.97
2017-01-18T07:58:29.870Z,19.93
2017-01-18T07:59:10.353Z,19.97
2017-01-18T07:59:50.843Z,20.02
2017-01-18T08:00:31.332Z,20.11
2017-01-18T08:01:11.838Z,20.16
2017-01-18T08:01:52.329Z,20.19
2017-01-18T08:02:32.836Z,20.25
2017-01-18T08:03:13.345Z,20.32
2017-01-18T08:03:53.840Z,20.37
2017-01-18T08:04:34.335Z,20.27
2017-01-18T08:05:14.855Z,20.42
2017-01-18T08:05:55.333Z,20.34
2017-01-18T08:06:35.829Z,20.41
2017-01-18T08:07:16.312Z,20.4
2017-01-18T08:07:56.799Z,20.35
2017-01-18T08:08:37.299Z,20.35
2017-01-18T08:09:17.787Z,20.37
2017-01-18T08:09:58.305Z,20.35
2017-01-18T08:10:38.776Z,20.46
2017-01-18T08:11:19.253Z,20.48
2017-01-18T08:12:00.526Z,20.48
2017-01-18T08:12:40.274Z,20.41
2017-01-18T08:13:20.786Z,20.4
2017-01-18T08:14:01.282Z,20.34
2017-01-18T08:14:41.776Z,20.46
2017-01-18T08:15:22.267Z,20.37
2017-01-18T08:16:02.774Z,20.54
2017-01-18T08:16:43.266Z,20.42
2017-01-18T08:17:23.776Z,20.51
2017-01-18T08:18:04.269Z,20.48
2017-01-18T08:18:44.774Z,20.56
2017-01-18T08:19:25.264Z,20.48
2017-01-18T08:20:05.771Z,20.42
2017-01-18T08:20:46.263Z,20.48
2017-01-18T08:21:26.746Z,20.53
2017-01-18T08:22:07.317Z,20.54
2017-01-18T08:22:47.817Z,20.44
2017-01-18T08:23:28.324Z,20.53
2017-01-18T08:24:08.820Z,20.49
2017-01-18T08:24:49.314Z,20.44
2017-01-18T08:25:29.897Z,20.49
2017-01-18T08:26:10.394Z,20.61
2017-01-18T08:26:50.874Z,20.61
2017-01-18T08:27:31.366Z,20.61
2017-01-18T08:28:11.867Z,20.68
2017-01-18T08:28:52.357Z,20.64
2017-01-18T08:29:32.839Z,20.61
2017-01-18T08:30:13.323Z,20.64
2017-01-18T08:30:53.816Z,20.56
2017-01-18T08:31:34.309Z,20.66
2017-01-18T08:32:14.812Z,20.63
2017-01-18T08:32:55.309Z,20.6
2017-01-18T08:33:35.816Z,20.64
2017-01-18T08:34:16.313Z,20.61
2017-01-18T08:34:56.790Z,20.71
2017-01-18T08:35:37.285Z,20.63
2017-01-18T08:36:17.794Z,20.66
2017-01-18T08:36:58.280Z,20.64
2017-01-18T08:37:38.807Z,20.61
2017-01-18T08:38:19.306Z,20.67
2017-01-18T08:38:59.793Z,20.78
2017-01-18T08:39:40.279Z,20.63
2017-01-18T08:40:20.771Z,20.66
2017-01-18T08:41:01.278Z,20.64
2017-01-18T08:41:41.763Z,20.64
2017-01-18T08:42:22.258Z,20.74
2017-01-18T08:43:02.927Z,20.78
2017-01-18T08:43:43.405Z,20.76
2017-01-18T08:44:23.878Z,20.75
2017-01-18T08:45:04.378Z,20.81
2017-01-18T08:45:44.864Z,20.85
2017-01-18T08:46:25.354Z,20.78
2017-01-18T08:47:05.848Z,20.88
2017-01-18T08:47:46.345Z,20.79
2017-01-18T08:48:26.850Z,20.93